sensor_id;sensor_type;location;lat;lon;timestamp;temperature;humidity
18581;DHT22;9420;50.876;7.012;2022-12-18T00:02:27;-4.80;99.90
18581;DHT22;9420;50.876;7.012;2022-12-18T00:04:54;-4.80;99.90
18581;DHT22;9420;50.876;7.012;2022-12-18T00:07:22;-4.80;99.90
18581;DHT22;9420;50.876;7.012;2022-12-18T00:09:49;-4.90;99.90
18581;DHT22;9420;50.876;7.012;2022-12-18T00:12:16;-5.00;99.90
18581;DHT22;9420;50.876;7.012;2022-12-18T00:14:46;-5.00;99.90
18581;DHT22;9420;50.876;7.012;2022-12-18T00:17:13;-5.00;99.90
18581;DHT22;9420;50.876;7.012;2022-12-18T00:19:40;-5.00;99.90
18581;DHT22;9420;50.876;7.012;2022-12-18T00:22:07;-5.00;99.90
18581;DHT22;9420;50.876;7.012;2022-12-18T00:24:36;-5.00;99.90
18581;DHT22;9420;50.876;7.012;2022-12-18T00:27:03;-5.00;99.90
18581;DHT22;9420;50.876;7.012;2022-12-18T00:29:30;-5.00;99.90
18581;DHT22;9420;50.876;7.012;2022-12-18T00:31:57;-5.00;99.90
18581;DHT22;9420;50.876;7.012;2022-12-18T00:34:24;-5.00;99.90
18581;DHT22;9420;50.876;7.012;2022-12-18T00:36:51;-5.10;99.90
18581;DHT22;9420;50.876;7.012;2022-12-18T00:39:18;-5.10;99.90
18581;DHT22;9420;50.876;7.012;2022-12-18T00:41:46;-5.10;99.90
18581;DHT22;9420;50.876;7.012;2022-12-18T00:44:31;-5.10;99.90
18581;DHT22;9420;50.876;7.012;2022-12-18T00:46:58;-5.10;99.90
18581;DHT22;9420;50.876;7.012;2022-12-18T00:49:25;-5.20;99.90
18581;DHT22;9420;50.876;7.012;2022-12-18T00:51:55;-5.20;99.90
18581;DHT22;9420;50.876;7.012;2022-12-18T00:54:23;-5.20;99.90
18581;DHT22;9420;50.876;7.012;2022-12-18T00:56:51;-5.20;99.90
18581;DHT22;9420;50.876;7.012;2022-12-18T00:59:20;-5.20;99.90
18581;DHT22;9420;50.876;7.012;2022-12-18T01:01:48;-5.30;99.90
18581;DHT22;9420;50.876;7.012;2022-12-18T01:04:15;-5.50;99.90
18581;DHT22;9420;50.876;7.012;2022-12-18T01:06:42;-5.60;99.90
18581;DHT22;9420;50.876;7.012;2022-12-18T01:09:09;-5.70;99.90
18581;DHT22;9420;50.876;7.012;2022-12-18T01:11:36;-5.80;99.90
18581;DHT22;9420;50.876;7.012;2022-12-18T01:14:04;-5.90;99.90
18581;DHT22;9420;50.876;7.012;2022-12-18T01:16:31;-6.00;99.90
18581;DHT22;9420;50.876;7.012;2022-12-18T01:18:58;-6.00;99.90
18581;DHT22;9420;50.876;7.012;2022-12-18T01:21:25;-6.00;99.90
18581;DHT22;9420;50.876;7.012;2022-12-18T01:23:54;-6.00;99.90
18581;DHT22;9420;50.876;7.012;2022-12-18T01:26:23;-5.90;99.90
18581;DHT22;9420;50.876;7.012;2022-12-18T01:28:54;-5.80;99.90
18581;DHT22;9420;50.876;7.012;2022-12-18T01:31:25;-5.70;99.90
18581;DHT22;9420;50.876;7.012;2022-12-18T01:33:54;-5.60;99.90
18581;DHT22;9420;50.876;7.012;2022-12-18T01:36:25;-5.60;99.90
18581;DHT22;9420;50.876;7.012;2022-12-18T01:38:55;-5.50;99.90
18581;DHT22;9420;50.876;7.012;2022-12-18T01:41:24;-5.40;99.90
18581;DHT22;9420;50.876;7.012;2022-12-18T01:47:32;-5.30;99.90
18581;DHT22;9420;50.876;7.012;2022-12-18T01:50:06;-5.20;99.90
18581;DHT22;9420;50.876;7.012;2022-12-18T01:52:40;-5.20;99.90
18581;DHT22;9420;50.876;7.012;2022-12-18T01:55:11;-5.20;99.90
18581;DHT22;9420;50.876;7.012;2022-12-18T01:57:40;-5.20;99.90
18581;DHT22;9420;50.876;7.012;2022-12-18T02:00:12;-5.30;99.90
18581;DHT22;9420;50.876;7.012;2022-12-18T02:02:44;-5.30;99.90
18581;DHT22;9420;50.876;7.012;2022-12-18T02:05:15;-5.30;99.90
18581;DHT22;9420;50.876;7.012;2022-12-18T02:07:51;-5.30;99.90
18581;DHT22;9420;50.876;7.012;2022-12-18T02:10:33;-5.20;99.90
18581;DHT22;9420;50.876;7.012;2022-12-18T02:13:13;-5.30;99.90
18581;DHT22;9420;50.876;7.012;2022-12-18T02:15:51;-5.30;99.90
18581;DHT22;9420;50.876;7.012;2022-12-18T02:18:30;-5.30;99.90
18581;DHT22;9420;50.876;7.012;2022-12-18T02:21:08;-5.20;99.90
18581;DHT22;9420;50.876;7.012;2022-12-18T02:23:50;-5.20;99.90
18581;DHT22;9420;50.876;7.012;2022-12-18T02:26:28;-5.30;99.90
18581;DHT22;9420;50.876;7.012;2022-12-18T02:29:04;-5.20;99.90
18581;DHT22;9420;50.876;7.012;2022-12-18T02:31:37;-5.30;99.90
18581;DHT22;9420;50.876;7.012;2022-12-18T02:34:09;-5.10;99.90
18581;DHT22;9420;50.876;7.012;2022-12-18T02:36:40;-5.20;99.90
18581;DHT22;9420;50.876;7.012;2022-12-18T02:39:11;-5.20;99.90
18581;DHT22;9420;50.876;7.012;2022-12-18T02:41:42;-5.30;99.90
18581;DHT22;9420;50.876;7.012;2022-12-18T02:44:11;-5.30;99.90
18581;DHT22;9420;50.876;7.012;2022-12-18T02:46:41;-5.30;99.90
18581;DHT22;9420;50.876;7.012;2022-12-18T02:49:20;-5.30;99.90
18581;DHT22;9420;50.876;7.012;2022-12-18T02:51:56;-5.40;99.90
18581;DHT22;9420;50.876;7.012;2022-12-18T02:54:49;-5.40;99.90
18581;DHT22;9420;50.876;7.012;2022-12-18T02:57:34;-5.40;99.90
18581;DHT22;9420;50.876;7.012;2022-12-18T03:00:08;-5.40;99.90
18581;DHT22;9420;50.876;7.012;2022-12-18T03:02:43;-5.40;99.90
18581;DHT22;9420;50.876;7.012;2022-12-18T03:05:16;-5.40;99.90
18581;DHT22;9420;50.876;7.012;2022-12-18T03:07:50;-5.40;99.90
18581;DHT22;9420;50.876;7.012;2022-12-18T03:10:25;-5.40;99.90
18581;DHT22;9420;50.876;7.012;2022-12-18T03:13:02;-5.40;99.90
18581;DHT22;9420;50.876;7.012;2022-12-18T03:15:34;-5.40;99.90
18581;DHT22;9420;50.876;7.012;2022-12-18T03:18:07;-5.40;99.90
18581;DHT22;9420;50.876;7.012;2022-12-18T03:20:43;-5.40;99.90
18581;DHT22;9420;50.876;7.012;2022-12-18T03:23:15;-5.40;99.90
18581;DHT22;9420;50.876;7.012;2022-12-18T03:25:45;-5.50;99.90
18581;DHT22;9420;50.876;7.012;2022-12-18T03:28:19;-5.50;99.90
18581;DHT22;9420;50.876;7.012;2022-12-18T03:30:53;-5.60;99.90
18581;DHT22;9420;50.876;7.012;2022-12-18T03:33:26;-5.70;99.90
18581;DHT22;9420;50.876;7.012;2022-12-18T03:35:57;-5.70;99.90
18581;DHT22;9420;50.876;7.012;2022-12-18T03:38:24;-5.70;99.90
18581;DHT22;9420;50.876;7.012;2022-12-18T03:40:58;-5.70;99.90
18581;DHT22;9420;50.876;7.012;2022-12-18T03:43:43;-5.70;99.90
18581;DHT22;9420;50.876;7.012;2022-12-18T03:46:24;-5.70;99.90
18581;DHT22;9420;50.876;7.012;2022-12-18T03:48:59;-5.70;99.90
18581;DHT22;9420;50.876;7.012;2022-12-18T03:51:37;-5.70;99.90
18581;DHT22;9420;50.876;7.012;2022-12-18T03:54:08;-5.80;99.90
18581;DHT22;9420;50.876;7.012;2022-12-18T03:56:40;-5.90;99.90
18581;DHT22;9420;50.876;7.012;2022-12-18T03:59:12;-5.90;99.90
18581;DHT22;9420;50.876;7.012;2022-12-18T04:01:46;-6.00;99.90
18581;DHT22;9420;50.876;7.012;2022-12-18T04:04:16;-6.00;99.90
18581;DHT22;9420;50.876;7.012;2022-12-18T04:06:46;-6.10;99.90
18581;DHT22;9420;50.876;7.012;2022-12-18T04:09:15;-6.10;99.90
18581;DHT22;9420;50.876;7.012;2022-12-18T04:11:43;-6.10;99.90
18581;DHT22;9420;50.876;7.012;2022-12-18T04:14:11;-6.20;99.90
18581;DHT22;9420;50.876;7.012;2022-12-18T04:16:38;-6.20;99.90
18581;DHT22;9420;50.876;7.012;2022-12-18T04:19:05;-6.20;99.90
18581;DHT22;9420;50.876;7.012;2022-12-18T04:21:33;-6.20;99.90
18581;DHT22;9420;50.876;7.012;2022-12-18T04:24:00;-6.30;99.90
18581;DHT22;9420;50.876;7.012;2022-12-18T04:26:27;-6.30;99.90
18581;DHT22;9420;50.876;7.012;2022-12-18T04:28:54;-6.30;99.90
18581;DHT22;9420;50.876;7.012;2022-12-18T04:31:22;-6.30;99.90
18581;DHT22;9420;50.876;7.012;2022-12-18T04:33:49;-6.30;99.90
18581;DHT22;9420;50.876;7.012;2022-12-18T04:36:16;-6.30;99.90
18581;DHT22;9420;50.876;7.012;2022-12-18T04:38:43;-6.30;99.90
18581;DHT22;9420;50.876;7.012;2022-12-18T04:41:13;-6.40;99.90
18581;DHT22;9420;50.876;7.012;2022-12-18T04:43:40;-6.40;99.90
18581;DHT22;9420;50.876;7.012;2022-12-18T04:46:08;-6.40;99.90
18581;DHT22;9420;50.876;7.012;2022-12-18T04:48:37;-6.50;99.90
18581;DHT22;9420;50.876;7.012;2022-12-18T04:51:05;-6.50;99.90
18581;DHT22;9420;50.876;7.012;2022-12-18T04:53:33;-6.50;99.90
18581;DHT22;9420;50.876;7.012;2022-12-18T04:56:07;-6.50;99.90
18581;DHT22;9420;50.876;7.012;2022-12-18T04:58:36;-6.40;99.90
18581;DHT22;9420;50.876;7.012;2022-12-18T05:01:05;-6.40;99.90
18581;DHT22;9420;50.876;7.012;2022-12-18T05:03:33;-6.50;99.90
18581;DHT22;9420;50.876;7.012;2022-12-18T05:06:02;-6.40;99.90
18581;DHT22;9420;50.876;7.012;2022-12-18T05:08:30;-6.40;99.90
18581;DHT22;9420;50.876;7.012;2022-12-18T05:10:58;-6.50;99.90
18581;DHT22;9420;50.876;7.012;2022-12-18T05:13:26;-6.50;99.90
18581;DHT22;9420;50.876;7.012;2022-12-18T05:15:54;-6.50;99.90
18581;DHT22;9420;50.876;7.012;2022-12-18T05:18:22;-6.50;99.90
18581;DHT22;9420;50.876;7.012;2022-12-18T05:20:49;-6.50;99.90
18581;DHT22;9420;50.876;7.012;2022-12-18T05:23:18;-6.50;99.90
18581;DHT22;9420;50.876;7.012;2022-12-18T05:25:50;-6.50;99.90
18581;DHT22;9420;50.876;7.012;2022-12-18T05:28:18;-6.60;99.90
18581;DHT22;9420;50.876;7.012;2022-12-18T05:30:48;-6.60;99.90
18581;DHT22;9420;50.876;7.012;2022-12-18T05:33:16;-6.60;99.90
18581;DHT22;9420;50.876;7.012;2022-12-18T05:35:43;-6.70;99.90
18581;DHT22;9420;50.876;7.012;2022-12-18T05:38:11;-6.70;99.90
18581;DHT22;9420;50.876;7.012;2022-12-18T05:40:41;-6.70;99.90
18581;DHT22;9420;50.876;7.012;2022-12-18T05:43:09;-6.70;99.90
18581;DHT22;9420;50.876;7.012;2022-12-18T05:45:37;-6.60;99.90
18581;DHT22;9420;50.876;7.012;2022-12-18T05:48:05;-6.60;99.90
18581;DHT22;9420;50.876;7.012;2022-12-18T05:50:34;-6.60;99.90
18581;DHT22;9420;50.876;7.012;2022-12-18T05:53:02;-6.50;99.90
18581;DHT22;9420;50.876;7.012;2022-12-18T05:55:29;-6.40;99.90
18581;DHT22;9420;50.876;7.012;2022-12-18T05:58:01;-6.40;99.90
18581;DHT22;9420;50.876;7.012;2022-12-18T06:00:29;-6.40;99.90
18581;DHT22;9420;50.876;7.012;2022-12-18T06:02:56;-6.40;99.90
18581;DHT22;9420;50.876;7.012;2022-12-18T06:05:23;-6.30;99.90
18581;DHT22;9420;50.876;7.012;2022-12-18T06:07:50;-6.30;99.90
18581;DHT22;9420;50.876;7.012;2022-12-18T06:10:18;-6.30;99.90
18581;DHT22;9420;50.876;7.012;2022-12-18T06:12:45;-6.30;99.90
18581;DHT22;9420;50.876;7.012;2022-12-18T06:15:13;-6.40;99.90
18581;DHT22;9420;50.876;7.012;2022-12-18T06:17:40;-6.40;99.90
18581;DHT22;9420;50.876;7.012;2022-12-18T06:20:08;-6.50;99.90
18581;DHT22;9420;50.876;7.012;2022-12-18T06:22:36;-6.60;99.90
18581;DHT22;9420;50.876;7.012;2022-12-18T06:25:03;-6.70;99.90
18581;DHT22;9420;50.876;7.012;2022-12-18T06:27:31;-6.70;99.90
18581;DHT22;9420;50.876;7.012;2022-12-18T06:29:59;-6.80;99.90
18581;DHT22;9420;50.876;7.012;2022-12-18T06:32:28;-6.80;99.90
18581;DHT22;9420;50.876;7.012;2022-12-18T06:34:55;-6.80;99.90
18581;DHT22;9420;50.876;7.012;2022-12-18T06:37:22;-6.80;99.90
18581;DHT22;9420;50.876;7.012;2022-12-18T06:39:51;-6.90;99.90
18581;DHT22;9420;50.876;7.012;2022-12-18T06:42:24;-6.90;99.90
18581;DHT22;9420;50.876;7.012;2022-12-18T06:44:51;-6.90;99.90
18581;DHT22;9420;50.876;7.012;2022-12-18T06:47:19;-7.00;99.90
18581;DHT22;9420;50.876;7.012;2022-12-18T06:49:47;-7.00;99.90
18581;DHT22;9420;50.876;7.012;2022-12-18T06:52:17;-6.90;99.90
18581;DHT22;9420;50.876;7.012;2022-12-18T06:54:44;-6.80;99.90
18581;DHT22;9420;50.876;7.012;2022-12-18T06:57:11;-6.80;99.90
18581;DHT22;9420;50.876;7.012;2022-12-18T06:59:38;-6.80;99.90
18581;DHT22;9420;50.876;7.012;2022-12-18T07:02:05;-6.80;99.90
18581;DHT22;9420;50.876;7.012;2022-12-18T07:04:32;-6.80;99.90
18581;DHT22;9420;50.876;7.012;2022-12-18T07:07:01;-6.70;99.90
18581;DHT22;9420;50.876;7.012;2022-12-18T07:09:30;-6.70;99.90
18581;DHT22;9420;50.876;7.012;2022-12-18T07:11:57;-6.60;99.90
18581;DHT22;9420;50.876;7.012;2022-12-18T07:14:24;-6.50;99.90
18581;DHT22;9420;50.876;7.012;2022-12-18T07:16:51;-6.50;99.90
18581;DHT22;9420;50.876;7.012;2022-12-18T07:19:18;-6.50;99.90
18581;DHT22;9420;50.876;7.012;2022-12-18T07:21:45;-6.40;99.90
18581;DHT22;9420;50.876;7.012;2022-12-18T07:24:14;-6.40;99.90
18581;DHT22;9420;50.876;7.012;2022-12-18T07:26:41;-6.40;99.90
18581;DHT22;9420;50.876;7.012;2022-12-18T07:29:08;-6.40;99.90
18581;DHT22;9420;50.876;7.012;2022-12-18T07:31:35;-6.40;99.90
18581;DHT22;9420;50.876;7.012;2022-12-18T07:34:02;-6.30;99.90
18581;DHT22;9420;50.876;7.012;2022-12-18T07:36:29;-6.30;99.90
18581;DHT22;9420;50.876;7.012;2022-12-18T07:38:56;-6.30;99.90
18581;DHT22;9420;50.876;7.012;2022-12-18T07:41:24;-6.30;99.90
18581;DHT22;9420;50.876;7.012;2022-12-18T07:43:51;-6.30;99.90
18581;DHT22;9420;50.876;7.012;2022-12-18T07:46:18;-6.30;99.90
18581;DHT22;9420;50.876;7.012;2022-12-18T07:48:46;-6.30;99.90
18581;DHT22;9420;50.876;7.012;2022-12-18T07:51:13;-6.30;99.90
18581;DHT22;9420;50.876;7.012;2022-12-18T07:53:40;-6.30;99.90
18581;DHT22;9420;50.876;7.012;2022-12-18T07:56:10;-6.30;99.90
18581;DHT22;9420;50.876;7.012;2022-12-18T07:58:40;-6.30;99.90
18581;DHT22;9420;50.876;7.012;2022-12-18T08:01:09;-6.30;99.90
18581;DHT22;9420;50.876;7.012;2022-12-18T08:03:38;-6.30;99.90
18581;DHT22;9420;50.876;7.012;2022-12-18T08:06:08;-6.20;99.90
18581;DHT22;9420;50.876;7.012;2022-12-18T08:08:36;-6.20;99.90
18581;DHT22;9420;50.876;7.012;2022-12-18T08:11:04;-6.20;99.90
18581;DHT22;9420;50.876;7.012;2022-12-18T08:13:31;-6.10;99.90
18581;DHT22;9420;50.876;7.012;2022-12-18T08:16:02;-6.00;99.90
18581;DHT22;9420;50.876;7.012;2022-12-18T08:18:35;-6.00;99.90
18581;DHT22;9420;50.876;7.012;2022-12-18T08:21:10;-5.90;99.90
18581;DHT22;9420;50.876;7.012;2022-12-18T08:23:40;-5.90;99.90
18581;DHT22;9420;50.876;7.012;2022-12-18T08:26:07;-5.80;99.90
18581;DHT22;9420;50.876;7.012;2022-12-18T08:28:34;-5.70;99.90
18581;DHT22;9420;50.876;7.012;2022-12-18T08:31:03;-5.60;99.90
18581;DHT22;9420;50.876;7.012;2022-12-18T08:33:31;-5.60;99.90
18581;DHT22;9420;50.876;7.012;2022-12-18T08:35:59;-5.50;99.90
18581;DHT22;9420;50.876;7.012;2022-12-18T08:38:27;-5.50;99.90
18581;DHT22;9420;50.876;7.012;2022-12-18T08:40:58;-5.50;99.90
18581;DHT22;9420;50.876;7.012;2022-12-18T08:43:25;-5.50;99.90
18581;DHT22;9420;50.876;7.012;2022-12-18T08:46:17;-5.40;99.90
18581;DHT22;9420;50.876;7.012;2022-12-18T08:48:50;-5.30;99.90
18581;DHT22;9420;50.876;7.012;2022-12-18T08:51:19;-5.20;99.90
18581;DHT22;9420;50.876;7.012;2022-12-18T08:53:46;-5.20;99.90
18581;DHT22;9420;50.876;7.012;2022-12-18T08:56:14;-5.10;99.90
18581;DHT22;9420;50.876;7.012;2022-12-18T08:58:41;-5.00;99.90
18581;DHT22;9420;50.876;7.012;2022-12-18T09:01:10;-4.80;99.90
18581;DHT22;9420;50.876;7.012;2022-12-18T09:03:40;-4.70;99.90
18581;DHT22;9420;50.876;7.012;2022-12-18T09:06:07;-4.60;99.90
18581;DHT22;9420;50.876;7.012;2022-12-18T09:08:35;-4.40;99.90
18581;DHT22;9420;50.876;7.012;2022-12-18T09:11:03;-4.30;99.90
18581;DHT22;9420;50.876;7.012;2022-12-18T09:13:31;-4.20;99.90
18581;DHT22;9420;50.876;7.012;2022-12-18T09:15:58;-4.10;99.90
18581;DHT22;9420;50.876;7.012;2022-12-18T09:18:27;-4.00;99.90
18581;DHT22;9420;50.876;7.012;2022-12-18T09:20:54;-4.00;99.90
18581;DHT22;9420;50.876;7.012;2022-12-18T09:23:21;-3.90;99.90
18581;DHT22;9420;50.876;7.012;2022-12-18T09:25:48;-3.80;99.90
18581;DHT22;9420;50.876;7.012;2022-12-18T09:28:16;-3.80;99.90
18581;DHT22;9420;50.876;7.012;2022-12-18T09:30:46;-3.70;99.90
18581;DHT22;9420;50.876;7.012;2022-12-18T09:33:14;-3.70;99.90
18581;DHT22;9420;50.876;7.012;2022-12-18T09:35:44;-3.60;99.90
18581;DHT22;9420;50.876;7.012;2022-12-18T09:38:14;-3.50;99.90
18581;DHT22;9420;50.876;7.012;2022-12-18T09:40:45;-3.40;99.90
18581;DHT22;9420;50.876;7.012;2022-12-18T09:43:18;-3.30;99.90
18581;DHT22;9420;50.876;7.012;2022-12-18T09:45:51;-3.20;99.90
18581;DHT22;9420;50.876;7.012;2022-12-18T09:48:26;-3.20;99.90
18581;DHT22;9420;50.876;7.012;2022-12-18T09:51:00;-3.10;99.90
18581;DHT22;9420;50.876;7.012;2022-12-18T09:53:34;-3.00;99.90
18581;DHT22;9420;50.876;7.012;2022-12-18T09:56:11;-2.90;99.90
18581;DHT22;9420;50.876;7.012;2022-12-18T09:58:47;-2.90;99.90
18581;DHT22;9420;50.876;7.012;2022-12-18T10:01:21;-2.80;99.90
18581;DHT22;9420;50.876;7.012;2022-12-18T10:03:50;-2.60;99.90
18581;DHT22;9420;50.876;7.012;2022-12-18T10:06:23;-2.50;99.90
18581;DHT22;9420;50.876;7.012;2022-12-18T10:09:02;-2.50;99.90
18581;DHT22;9420;50.876;7.012;2022-12-18T10:11:40;-2.40;99.90
18581;DHT22;9420;50.876;7.012;2022-12-18T10:14:19;-2.30;99.90
18581;DHT22;9420;50.876;7.012;2022-12-18T10:16:59;-2.30;99.90
18581;DHT22;9420;50.876;7.012;2022-12-18T10:19:43;-2.20;99.90
18581;DHT22;9420;50.876;7.012;2022-12-18T10:22:25;-2.10;99.90
18581;DHT22;9420;50.876;7.012;2022-12-18T10:25:05;-2.00;99.90
18581;DHT22;9420;50.876;7.012;2022-12-18T10:27:44;-1.90;99.90
18581;DHT22;9420;50.876;7.012;2022-12-18T10:30:13;-1.80;99.90
18581;DHT22;9420;50.876;7.012;2022-12-18T10:32:42;-1.70;99.90
18581;DHT22;9420;50.876;7.012;2022-12-18T10:35:17;-1.60;99.90
18581;DHT22;9420;50.876;7.012;2022-12-18T10:38:22;-1.50;99.90
18581;DHT22;9420;50.876;7.012;2022-12-18T10:40:53;-1.40;99.90
18581;DHT22;9420;50.876;7.012;2022-12-18T10:43:25;-1.30;99.90
18581;DHT22;9420;50.876;7.012;2022-12-18T10:46:11;-1.10;99.90
18581;DHT22;9420;50.876;7.012;2022-12-18T10:48:52;-1.10;99.90
18581;DHT22;9420;50.876;7.012;2022-12-18T10:51:24;-1.10;99.90
18581;DHT22;9420;50.876;7.012;2022-12-18T10:53:57;-0.90;99.90
18581;DHT22;9420;50.876;7.012;2022-12-18T10:56:29;-0.80;99.90
18581;DHT22;9420;50.876;7.012;2022-12-18T10:59:00;-0.80;99.90
18581;DHT22;9420;50.876;7.012;2022-12-18T11:01:28;-0.70;99.90
18581;DHT22;9420;50.876;7.012;2022-12-18T11:04:17;-0.80;99.90
18581;DHT22;9420;50.876;7.012;2022-12-18T11:06:56;-0.90;99.90
18581;DHT22;9420;50.876;7.012;2022-12-18T11:09:28;-0.90;99.90
18581;DHT22;9420;50.876;7.012;2022-12-18T11:11:59;-0.90;99.90
18581;DHT22;9420;50.876;7.012;2022-12-18T11:14:31;-0.90;99.90
18581;DHT22;9420;50.876;7.012;2022-12-18T11:17:00;-0.80;99.90
18581;DHT22;9420;50.876;7.012;2022-12-18T11:19:33;-0.70;99.90
18581;DHT22;9420;50.876;7.012;2022-12-18T11:22:17;-0.60;99.90
18581;DHT22;9420;50.876;7.012;2022-12-18T11:24:55;-0.70;99.90
18581;DHT22;9420;50.876;7.012;2022-12-18T11:27:25;-0.70;99.90
18581;DHT22;9420;50.876;7.012;2022-12-18T11:29:52;-0.60;99.90
18581;DHT22;9420;50.876;7.012;2022-12-18T11:32:35;-0.60;99.90
18581;DHT22;9420;50.876;7.012;2022-12-18T11:35:13;-0.60;99.90
18581;DHT22;9420;50.876;7.012;2022-12-18T11:37:49;-0.60;99.90
18581;DHT22;9420;50.876;7.012;2022-12-18T11:40:30;-0.70;99.90
18581;DHT22;9420;50.876;7.012;2022-12-18T11:43:07;-0.70;99.90
18581;DHT22;9420;50.876;7.012;2022-12-18T11:45:42;-0.70;99.90
18581;DHT22;9420;50.876;7.012;2022-12-18T11:48:18;-0.80;99.90
18581;DHT22;9420;50.876;7.012;2022-12-18T11:50:50;-0.70;99.90
18581;DHT22;9420;50.876;7.012;2022-12-18T11:53:19;-0.70;99.90
18581;DHT22;9420;50.876;7.012;2022-12-18T11:56:00;-0.80;99.90
18581;DHT22;9420;50.876;7.012;2022-12-18T11:58:44;-0.90;99.90
18581;DHT22;9420;50.876;7.012;2022-12-18T12:01:22;-0.90;99.90
18581;DHT22;9420;50.876;7.012;2022-12-18T12:04:25;-1.00;99.90
18581;DHT22;9420;50.876;7.012;2022-12-18T12:07:14;-1.00;99.90
18581;DHT22;9420;50.876;7.012;2022-12-18T12:09:58;-1.00;99.90
18581;DHT22;9420;50.876;7.012;2022-12-18T12:12:43;-1.00;99.90
18581;DHT22;9420;50.876;7.012;2022-12-18T12:15:42;-1.00;99.90
18581;DHT22;9420;50.876;7.012;2022-12-18T12:18:23;-1.00;99.90
18581;DHT22;9420;50.876;7.012;2022-12-18T12:21:04;-1.10;99.90
18581;DHT22;9420;50.876;7.012;2022-12-18T12:23:42;-1.00;99.90
18581;DHT22;9420;50.876;7.012;2022-12-18T12:26:22;-1.00;99.90
18581;DHT22;9420;50.876;7.012;2022-12-18T12:29:08;-1.00;99.90
18581;DHT22;9420;50.876;7.012;2022-12-18T12:31:58;-1.00;99.90
18581;DHT22;9420;50.876;7.012;2022-12-18T12:34:38;-1.10;99.90
18581;DHT22;9420;50.876;7.012;2022-12-18T12:37:22;-1.10;99.90
18581;DHT22;9420;50.876;7.012;2022-12-18T12:40:01;-1.00;99.90
18581;DHT22;9420;50.876;7.012;2022-12-18T12:42:32;-1.00;99.90
18581;DHT22;9420;50.876;7.012;2022-12-18T12:45:30;-1.00;99.90
18581;DHT22;9420;50.876;7.012;2022-12-18T12:48:04;-1.00;99.90
18581;DHT22;9420;50.876;7.012;2022-12-18T12:50:41;-1.00;99.90
18581;DHT22;9420;50.876;7.012;2022-12-18T12:53:17;-1.00;99.90
18581;DHT22;9420;50.876;7.012;2022-12-18T12:55:51;-1.00;99.90
18581;DHT22;9420;50.876;7.012;2022-12-18T12:58:27;-1.00;99.90
18581;DHT22;9420;50.876;7.012;2022-12-18T13:01:10;-1.00;99.90
18581;DHT22;9420;50.876;7.012;2022-12-18T13:03:49;-0.90;99.90
18581;DHT22;9420;50.876;7.012;2022-12-18T13:06:40;-0.80;99.90
18581;DHT22;9420;50.876;7.012;2022-12-18T13:09:13;-0.70;99.90
18581;DHT22;9420;50.876;7.012;2022-12-18T13:11:42;-0.60;99.90
18581;DHT22;9420;50.876;7.012;2022-12-18T13:14:30;-0.70;99.90
18581;DHT22;9420;50.876;7.012;2022-12-18T13:17:33;-0.70;99.90
18581;DHT22;9420;50.876;7.012;2022-12-18T13:20:09;-0.70;99.90
18581;DHT22;9420;50.876;7.012;2022-12-18T13:22:41;-0.70;99.90
18581;DHT22;9420;50.876;7.012;2022-12-18T13:25:32;-0.80;99.90
18581;DHT22;9420;50.876;7.012;2022-12-18T13:28:07;-0.80;99.90
18581;DHT22;9420;50.876;7.012;2022-12-18T13:30:45;-0.80;99.90
18581;DHT22;9420;50.876;7.012;2022-12-18T13:33:43;-0.80;99.90
18581;DHT22;9420;50.876;7.012;2022-12-18T13:36:30;-0.80;99.90
18581;DHT22;9420;50.876;7.012;2022-12-18T13:39:35;-0.80;99.90
18581;DHT22;9420;50.876;7.012;2022-12-18T13:42:39;-0.80;99.90
18581;DHT22;9420;50.876;7.012;2022-12-18T13:45:59;-0.80;99.90
18581;DHT22;9420;50.876;7.012;2022-12-18T13:48:31;-0.80;99.90
18581;DHT22;9420;50.876;7.012;2022-12-18T13:51:03;-0.70;99.90
18581;DHT22;9420;50.876;7.012;2022-12-18T13:53:36;-0.80;99.90
18581;DHT22;9420;50.876;7.012;2022-12-18T13:56:08;-0.70;99.90
18581;DHT22;9420;50.876;7.012;2022-12-18T13:58:36;-0.80;99.90
18581;DHT22;9420;50.876;7.012;2022-12-18T14:01:02;-0.80;99.90
18581;DHT22;9420;50.876;7.012;2022-12-18T14:03:30;-0.80;99.90
18581;DHT22;9420;50.876;7.012;2022-12-18T14:06:06;-0.80;99.90
18581;DHT22;9420;50.876;7.012;2022-12-18T14:08:38;-0.80;99.90
18581;DHT22;9420;50.876;7.012;2022-12-18T14:11:07;-0.80;99.90
18581;DHT22;9420;50.876;7.012;2022-12-18T14:13:47;-0.90;99.90
18581;DHT22;9420;50.876;7.012;2022-12-18T14:16:15;-0.90;99.90
18581;DHT22;9420;50.876;7.012;2022-12-18T14:18:46;-1.00;99.90
18581;DHT22;9420;50.876;7.012;2022-12-18T14:21:24;-1.00;99.90
18581;DHT22;9420;50.876;7.012;2022-12-18T14:24:12;-1.10;99.90
18581;DHT22;9420;50.876;7.012;2022-12-18T14:26:41;-1.10;99.90
18581;DHT22;9420;50.876;7.012;2022-12-18T14:29:23;-1.10;99.90
18581;DHT22;9420;50.876;7.012;2022-12-18T14:32:05;-1.10;99.90
18581;DHT22;9420;50.876;7.012;2022-12-18T14:34:37;-1.10;99.90
18581;DHT22;9420;50.876;7.012;2022-12-18T14:37:08;-1.10;99.90
18581;DHT22;9420;50.876;7.012;2022-12-18T14:39:36;-1.10;99.90
18581;DHT22;9420;50.876;7.012;2022-12-18T14:42:04;-1.10;99.90
18581;DHT22;9420;50.876;7.012;2022-12-18T14:44:31;-1.10;99.90
18581;DHT22;9420;50.876;7.012;2022-12-18T14:46:58;-1.20;99.90
18581;DHT22;9420;50.876;7.012;2022-12-18T14:49:29;-1.20;99.90
18581;DHT22;9420;50.876;7.012;2022-12-18T14:52:02;-1.30;99.90
18581;DHT22;9420;50.876;7.012;2022-12-18T14:54:35;-1.30;99.90
18581;DHT22;9420;50.876;7.012;2022-12-18T14:57:05;-1.40;99.90
18581;DHT22;9420;50.876;7.012;2022-12-18T14:59:39;-1.40;99.90
18581;DHT22;9420;50.876;7.012;2022-12-18T15:02:13;-1.40;99.90
18581;DHT22;9420;50.876;7.012;2022-12-18T15:04:46;-1.40;99.90
18581;DHT22;9420;50.876;7.012;2022-12-18T15:07:16;-1.40;99.90
18581;DHT22;9420;50.876;7.012;2022-12-18T15:10:02;-1.50;99.90
18581;DHT22;9420;50.876;7.012;2022-12-18T15:12:39;-1.50;99.90
18581;DHT22;9420;50.876;7.012;2022-12-18T15:15:45;-1.50;99.90
18581;DHT22;9420;50.876;7.012;2022-12-18T15:18:15;-1.50;99.90
18581;DHT22;9420;50.876;7.012;2022-12-18T15:20:47;-1.50;99.90
18581;DHT22;9420;50.876;7.012;2022-12-18T15:23:18;-1.50;99.90
18581;DHT22;9420;50.876;7.012;2022-12-18T15:25:58;-1.60;99.90
18581;DHT22;9420;50.876;7.012;2022-12-18T15:28:31;-1.50;99.90
18581;DHT22;9420;50.876;7.012;2022-12-18T15:31:17;-1.60;99.90
18581;DHT22;9420;50.876;7.012;2022-12-18T15:34:10;-1.60;99.90
18581;DHT22;9420;50.876;7.012;2022-12-18T15:36:41;-1.60;99.90
18581;DHT22;9420;50.876;7.012;2022-12-18T15:39:11;-1.60;99.90
18581;DHT22;9420;50.876;7.012;2022-12-18T15:41:40;-1.60;99.90
18581;DHT22;9420;50.876;7.012;2022-12-18T15:44:28;-1.60;99.90
18581;DHT22;9420;50.876;7.012;2022-12-18T15:46:58;-1.60;99.90
18581;DHT22;9420;50.876;7.012;2022-12-18T15:49:26;-1.60;99.90
18581;DHT22;9420;50.876;7.012;2022-12-18T15:51:56;-1.60;99.90
18581;DHT22;9420;50.876;7.012;2022-12-18T15:54:25;-1.70;99.90
18581;DHT22;9420;50.876;7.012;2022-12-18T15:57:12;-1.70;99.90
18581;DHT22;9420;50.876;7.012;2022-12-18T15:59:53;-1.60;99.90
18581;DHT22;9420;50.876;7.012;2022-12-18T16:02:24;-1.70;99.90
18581;DHT22;9420;50.876;7.012;2022-12-18T16:04:52;-1.60;99.90
18581;DHT22;9420;50.876;7.012;2022-12-18T16:07:20;-1.60;99.90
18581;DHT22;9420;50.876;7.012;2022-12-18T16:09:47;-1.70;99.90
18581;DHT22;9420;50.876;7.012;2022-12-18T16:12:19;-1.60;99.90
18581;DHT22;9420;50.876;7.012;2022-12-18T16:14:49;-1.60;99.90
18581;DHT22;9420;50.876;7.012;2022-12-18T16:17:16;-1.60;99.90
18581;DHT22;9420;50.876;7.012;2022-12-18T16:19:43;-1.60;99.90
18581;DHT22;9420;50.876;7.012;2022-12-18T16:22:18;-1.70;99.90
18581;DHT22;9420;50.876;7.012;2022-12-18T16:24:48;-1.70;99.90